Terminal Aerodrome Forecast
Issued by NWS Cheyenne, WY

Home | Current Version | Previous Version | Text Only | Print | Product List | Glossary On
Versions: 1 2 3 4 5 6 7 8 9 10 11 12 13 14 15 16
000
FTUS45 KCYS 251728
TAFCYS
TAF
KCYS 251728Z 2518/2618 28020G30KT P6SM VCSH SCT050
     FM252000 34020G30KT 6SM -SHRA SCT020 OVC050
      TEMPO 2520/2524 4SM -TSRA OVC020CB
     FM260100 36018G25KT P6SM -RA OVC015
     FM260700 32011KT P6SM BKN250=

USA.gov is the U.S. government's official web portal to all federal, state and local government web resources and services.